createdAt,value
2023-03-20T00:01:24.140Z,2.63
2023-03-20T00:03:51.806Z,2.10
2023-03-20T00:06:21.063Z,2.07
2023-03-20T00:08:49.575Z,2.40
2023-03-20T00:11:48.121Z,2.40
2023-03-20T00:14:17.431Z,2.47
2023-03-20T00:16:46.037Z,4.20
2023-03-20T00:19:27.837Z,3.97
2023-03-20T00:21:55.459Z,4.43
2023-03-20T00:24:23.007Z,3.73
2023-03-20T00:26:51.080Z,3.07
2023-03-20T00:29:22.839Z,4.00
2023-03-20T00:31:50.127Z,3.77
2023-03-20T00:34:23.401Z,6.17
2023-03-20T00:36:51.114Z,3.90
2023-03-20T00:39:17.702Z,3.87
2023-03-20T00:41:58.906Z,4.13
2023-03-20T00:44:36.397Z,5.63
2023-03-20T00:47:06.492Z,3.67
2023-03-20T00:49:35.053Z,4.47
2023-03-20T00:52:03.399Z,4.90
2023-03-20T00:54:30.842Z,3.83
2023-03-20T00:57:06.393Z,4.38
2023-03-20T00:59:38.007Z,4.20
2023-03-20T01:02:04.977Z,4.93
2023-03-20T01:04:38.135Z,3.90
2023-03-20T01:07:05.770Z,3.40
2023-03-20T01:09:32.471Z,3.77
2023-03-20T01:12:00.533Z,3.50
2023-03-20T01:14:27.291Z,4.37
2023-03-20T01:16:53.977Z,3.20
2023-03-20T01:19:20.683Z,3.80
2023-03-20T01:21:47.476Z,3.23
2023-03-20T01:24:14.190Z,3.30
2023-03-20T01:26:43.223Z,2.87
2023-03-20T01:29:28.014Z,3.30
2023-03-20T01:31:55.027Z,3.28
2023-03-20T01:34:21.848Z,2.80
2023-03-20T01:36:49.914Z,3.33
2023-03-20T01:39:17.863Z,3.20
2023-03-20T01:41:45.261Z,2.93
2023-03-20T01:44:27.955Z,3.60
2023-03-20T01:46:55.316Z,4.60
2023-03-20T01:49:21.839Z,3.13
2023-03-20T01:51:49.503Z,2.83
2023-03-20T01:54:27.396Z,3.30
2023-03-20T01:57:04.016Z,3.90
2023-03-20T01:59:41.318Z,2.73
2023-03-20T02:02:09.701Z,3.67
2023-03-20T02:04:41.347Z,3.00
2023-03-20T02:07:09.385Z,2.60
2023-03-20T02:09:36.122Z,2.70
2023-03-20T02:12:03.710Z,2.53
2023-03-20T02:14:31.764Z,2.63
2023-03-20T02:16:58.624Z,2.60
2023-03-20T02:19:36.139Z,3.23
2023-03-20T02:22:25.832Z,2.50
2023-03-20T02:25:17.047Z,3.10
2023-03-20T02:28:08.915Z,2.07
2023-03-20T02:31:06.034Z,1.80
2023-03-20T02:34:03.859Z,1.80
2023-03-20T02:36:59.029Z,1.80
2023-03-20T02:39:57.400Z,1.50
2023-03-20T02:42:39.304Z,1.63
2023-03-20T02:45:25.273Z,1.57
2023-03-20T02:48:11.973Z,1.40
2023-03-20T02:50:56.198Z,1.70
2023-03-20T02:53:46.062Z,1.83
2023-03-20T02:56:25.038Z,1.43
2023-03-20T02:59:04.836Z,2.23
2023-03-20T03:01:43.811Z,1.83
2023-03-20T03:04:22.016Z,1.60
2023-03-20T03:06:52.552Z,1.50
2023-03-20T03:09:22.489Z,1.27
2023-03-20T03:11:57.241Z,1.90
2023-03-20T03:14:48.973Z,1.63
2023-03-20T03:17:18.098Z,1.40
2023-03-20T03:19:51.132Z,1.43
2023-03-20T03:22:18.362Z,1.50
2023-03-20T03:24:47.332Z,1.30
2023-03-20T03:27:18.106Z,1.30
2023-03-20T03:29:49.451Z,2.00
2023-03-20T03:32:48.645Z,1.30
2023-03-20T03:35:21.295Z,2.60
2023-03-20T03:38:16.704Z,1.60
2023-03-20T03:41:20.502Z,1.50
2023-03-20T03:44:04.772Z,1.40
2023-03-20T03:47:10.733Z,1.50
2023-03-20T03:49:42.583Z,1.43
2023-03-20T03:52:17.939Z,1.30
2023-03-20T03:54:55.553Z,1.33
2023-03-20T03:57:29.318Z,1.50
2023-03-20T03:59:58.894Z,1.40
2023-03-20T04:02:26.251Z,1.40
2023-03-20T04:04:55.150Z,1.77
2023-03-20T04:07:21.841Z,1.67
2023-03-20T04:09:48.470Z,1.40
2023-03-20T04:12:35.299Z,2.90
2023-03-20T04:15:03.474Z,1.83
2023-03-20T04:17:30.529Z,2.07
2023-03-20T04:19:57.410Z,1.53
2023-03-20T04:22:24.020Z,1.83
2023-03-20T04:24:51.165Z,1.80
2023-03-20T04:27:17.905Z,1.90
2023-03-20T04:29:44.555Z,2.40
2023-03-20T04:32:11.541Z,2.00
2023-03-20T04:34:38.102Z,1.60
2023-03-20T04:37:07.787Z,1.60
2023-03-20T04:39:35.646Z,2.07
2023-03-20T04:42:02.965Z,2.73
2023-03-20T04:44:29.600Z,2.00
2023-03-20T04:46:56.278Z,1.73
2023-03-20T04:49:23.123Z,1.73
2023-03-20T04:51:49.857Z,2.00
2023-03-20T04:54:16.778Z,1.67
2023-03-20T04:56:43.420Z,2.33
2023-03-20T04:59:10.234Z,1.80
2023-03-20T05:01:36.845Z,1.80
2023-03-20T05:04:03.486Z,2.33
2023-03-20T05:06:31.635Z,2.00
2023-03-20T05:08:59.417Z,1.80
2023-03-20T05:11:27.017Z,1.80
2023-03-20T05:13:53.845Z,1.87
2023-03-20T05:16:20.568Z,2.37
2023-03-20T05:18:47.244Z,1.70
2023-03-20T05:21:13.784Z,2.13
2023-03-20T05:23:40.602Z,1.93
2023-03-20T05:26:07.489Z,2.00
2023-03-20T05:28:34.066Z,1.67
2023-03-20T05:31:00.690Z,2.10
2023-03-20T05:33:27.360Z,3.03
2023-03-20T05:35:53.983Z,2.57
2023-03-20T05:38:22.711Z,2.17
2023-03-20T05:40:50.224Z,1.80
2023-03-20T05:43:16.901Z,1.87
2023-03-20T05:45:43.730Z,1.70
2023-03-20T05:48:10.289Z,1.83
2023-03-20T05:50:36.846Z,1.70
2023-03-20T05:53:03.408Z,1.80
2023-03-20T05:55:29.965Z,1.70
2023-03-20T05:57:56.529Z,2.93
2023-03-20T06:00:23.681Z,1.60
2023-03-20T06:02:50.320Z,1.60
2023-03-20T06:05:17.192Z,4.67
2023-03-20T06:07:44.026Z,1.50
2023-03-20T06:10:11.266Z,1.67
2023-03-20T06:12:37.848Z,1.60
2023-03-20T06:15:05.338Z,1.97
2023-03-20T06:17:31.922Z,4.77
2023-03-20T06:19:58.506Z,2.90
2023-03-20T06:22:25.208Z,1.70
2023-03-20T06:24:51.937Z,2.33
2023-03-20T06:27:18.552Z,3.27
2023-03-20T06:29:45.084Z,2.10
2023-03-20T06:32:14.573Z,1.80
2023-03-20T06:34:41.270Z,2.77
2023-03-20T06:37:07.862Z,2.40
2023-03-20T06:39:34.433Z,2.20
2023-03-20T06:42:01.554Z,1.63
2023-03-20T06:44:28.569Z,2.03
2023-03-20T06:46:56.095Z,1.60
2023-03-20T06:49:23.233Z,4.40
2023-03-20T06:51:50.329Z,3.60
2023-03-20T06:54:16.882Z,1.60
2023-03-20T06:56:43.435Z,1.50
2023-03-20T06:59:09.996Z,2.23
2023-03-20T07:01:36.869Z,1.97
2023-03-20T07:04:03.495Z,2.67
2023-03-20T07:06:30.547Z,1.50
2023-03-20T07:08:57.136Z,1.67
2023-03-20T07:11:23.803Z,3.77
2023-03-20T07:13:50.357Z,1.73
2023-03-20T07:16:17.894Z,1.40
2023-03-20T07:18:44.560Z,1.50
2023-03-20T07:21:16.322Z,1.93
2023-03-20T07:23:42.898Z,2.33
2023-03-20T07:26:09.751Z,2.10
2023-03-20T07:28:36.494Z,4.90
2023-03-20T07:31:03.204Z,3.20
2023-03-20T07:33:29.862Z,1.70
2023-03-20T07:35:56.538Z,3.33
2023-03-20T07:38:23.687Z,1.93
2023-03-20T07:40:50.310Z,2.47
2023-03-20T07:43:17.460Z,1.73
2023-03-20T07:45:44.097Z,1.50
2023-03-20T07:48:10.984Z,1.60
2023-03-20T07:50:37.791Z,2.40
2023-03-20T07:53:04.396Z,1.77
2023-03-20T07:55:31.062Z,4.77
2023-03-20T07:57:57.691Z,1.60
2023-03-20T08:00:25.611Z,1.70
2023-03-20T08:02:54.062Z,1.70
2023-03-20T08:05:21.049Z,2.13
2023-03-20T08:07:47.641Z,1.97
2023-03-20T08:10:14.314Z,1.97
2023-03-20T08:12:41.229Z,2.50
2023-03-20T08:15:08.407Z,1.70
2023-03-20T08:17:35.024Z,4.50
2023-03-20T08:20:01.689Z,1.97
2023-03-20T08:22:28.337Z,2.90
2023-03-20T08:24:54.967Z,2.23
2023-03-20T08:27:21.528Z,3.50
2023-03-20T08:29:48.088Z,2.63
2023-03-20T08:32:14.637Z,2.53
2023-03-20T08:34:41.480Z,2.33
2023-03-20T08:37:08.120Z,1.90
2023-03-20T08:39:35.737Z,2.73
2023-03-20T08:42:02.421Z,2.63
2023-03-20T08:44:29.132Z,2.10
2023-03-20T08:46:56.444Z,2.40
2023-03-20T08:49:23.349Z,2.97
2023-03-20T08:51:50.072Z,2.67
2023-03-20T08:54:18.373Z,3.20
2023-03-20T08:56:45.930Z,2.47
2023-03-20T08:59:12.671Z,2.90
2023-03-20T09:01:49.291Z,2.10
2023-03-20T09:04:17.126Z,3.63
2023-03-20T09:06:43.711Z,3.60
2023-03-20T09:09:11.313Z,2.40
2023-03-20T09:11:38.412Z,2.33
2023-03-20T09:14:05.664Z,2.17
2023-03-20T09:16:33.133Z,2.83
2023-03-20T09:19:01.392Z,3.80
2023-03-20T09:21:28.391Z,2.03
2023-03-20T09:23:55.422Z,2.30
2023-03-20T09:26:22.457Z,2.20
2023-03-20T09:28:49.783Z,2.97
2023-03-20T09:31:16.804Z,2.97
2023-03-20T09:33:43.883Z,1.87
2023-03-20T09:36:11.723Z,1.90
2023-03-20T09:38:41.816Z,1.70
2023-03-20T09:41:16.093Z,4.23
2023-03-20T09:44:00.724Z,1.97
2023-03-20T09:46:52.292Z,1.90
2023-03-20T09:49:30.973Z,1.90
2023-03-20T09:52:15.876Z,2.63
2023-03-20T09:54:54.128Z,2.07
2023-03-20T09:57:27.754Z,1.60
2023-03-20T10:00:02.841Z,5.63
2023-03-20T10:02:58.236Z,1.90
2023-03-20T10:05:31.750Z,2.00
2023-03-20T10:08:02.040Z,1.97
2023-03-20T10:10:48.760Z,2.17
2023-03-20T10:13:37.128Z,3.77
2023-03-20T10:16:07.167Z,2.97
2023-03-20T10:18:37.757Z,4.10
2023-03-20T10:21:24.183Z,3.77
2023-03-20T10:24:02.484Z,4.00
2023-03-20T10:26:31.002Z,3.60
2023-03-20T10:28:59.989Z,4.20
2023-03-20T10:31:49.489Z,4.60
2023-03-20T10:34:43.097Z,3.10
2023-03-20T10:37:31.276Z,6.47
2023-03-20T10:40:30.057Z,3.90
2023-03-20T10:43:01.402Z,5.23
2023-03-20T10:45:46.290Z,7.20
2023-03-20T10:48:38.420Z,5.53
2023-03-20T10:51:06.928Z,5.20
2023-03-20T10:53:47.424Z,6.77
2023-03-20T10:56:23.090Z,6.00
2023-03-20T10:58:57.432Z,5.70
2023-03-20T11:01:24.136Z,6.30
2023-03-20T11:03:50.792Z,6.17
2023-03-20T11:06:22.847Z,6.70
2023-03-20T11:08:52.067Z,5.77
2023-03-20T11:11:27.918Z,5.83
2023-03-20T11:13:54.932Z,6.73
2023-03-20T11:16:32.915Z,7.27
2023-03-20T11:19:07.036Z,8.30
2023-03-20T11:21:37.028Z,6.03
2023-03-20T11:24:04.671Z,6.47
2023-03-20T11:26:39.749Z,6.50
2023-03-20T11:29:13.766Z,5.60
2023-03-20T11:31:41.337Z,8.93
2023-03-20T11:34:31.031Z,8.17
2023-03-20T11:37:09.661Z,6.77
2023-03-20T11:39:38.226Z,9.97
2023-03-20T11:42:25.035Z,6.57
2023-03-20T11:45:03.708Z,6.53
2023-03-20T11:47:34.015Z,6.17
2023-03-20T11:50:03.509Z,6.40
2023-03-20T11:52:39.216Z,6.27
2023-03-20T11:55:23.770Z,6.10
2023-03-20T11:57:50.743Z,5.82
2023-03-20T12:00:22.611Z,6.37
2023-03-20T12:02:49.846Z,5.00
2023-03-20T12:05:36.353Z,5.70
2023-03-20T12:08:26.406Z,5.20
2023-03-20T12:11:01.110Z,7.10
2023-03-20T12:13:36.381Z,7.63
2023-03-20T12:16:06.978Z,6.23
2023-03-20T12:18:47.758Z,7.43
2023-03-20T12:21:39.018Z,6.83
2023-03-20T12:24:29.728Z,5.97
2023-03-20T12:27:21.106Z,6.50
2023-03-20T12:29:54.451Z,6.37
2023-03-20T12:32:30.940Z,6.47
2023-03-20T12:35:10.202Z,7.90
2023-03-20T12:37:36.950Z,5.07
2023-03-20T12:40:04.433Z,4.73
2023-03-20T12:43:05.409Z,4.90
2023-03-20T12:45:51.112Z,6.07
2023-03-20T12:48:44.729Z,7.57
2023-03-20T12:51:15.248Z,5.43
2023-03-20T12:53:59.824Z,7.03
2023-03-20T12:56:36.387Z,4.30
2023-03-20T12:59:26.621Z,5.70
2023-03-20T13:01:59.050Z,4.80
2023-03-20T13:04:52.753Z,4.70
2023-03-20T13:07:23.393Z,5.53
2023-03-20T13:09:51.311Z,5.13
2023-03-20T13:12:24.370Z,4.30
2023-03-20T13:15:00.142Z,7.50
2023-03-20T13:17:33.277Z,4.22
2023-03-20T13:20:13.190Z,5.83
2023-03-20T13:22:52.550Z,3.87
2023-03-20T13:25:26.349Z,3.93
2023-03-20T13:28:22.820Z,6.47
2023-03-20T13:31:05.909Z,8.27
2023-03-20T13:33:36.178Z,5.30
2023-03-20T13:36:12.427Z,5.60
2023-03-20T13:38:42.830Z,3.57
2023-03-20T13:41:10.735Z,3.27
2023-03-20T13:43:43.725Z,6.00
2023-03-20T13:46:12.640Z,4.53
2023-03-20T13:48:40.904Z,3.60
2023-03-20T13:51:14.209Z,3.65
2023-03-20T13:54:00.138Z,3.47
2023-03-20T13:56:41.266Z,4.40
2023-03-20T13:59:29.518Z,2.93
2023-03-20T14:01:58.688Z,3.60
2023-03-20T14:04:27.563Z,3.57
2023-03-20T14:06:56.758Z,3.77
2023-03-20T14:09:35.666Z,6.90
2023-03-20T14:12:09.203Z,3.37
2023-03-20T14:14:53.265Z,3.43
2023-03-20T14:17:30.986Z,2.50
2023-03-20T14:20:09.313Z,3.00
2023-03-20T14:22:39.045Z,2.53
2023-03-20T14:25:08.909Z,3.00
2023-03-20T14:27:52.880Z,2.60
2023-03-20T14:30:38.735Z,3.42
2023-03-20T14:33:24.386Z,4.33
2023-03-20T14:36:12.521Z,3.37
2023-03-20T14:39:16.403Z,5.73
2023-03-20T14:41:55.396Z,3.13
2023-03-20T14:44:33.908Z,4.07
2023-03-20T14:47:31.634Z,3.63
2023-03-20T14:50:07.078Z,2.20
2023-03-20T14:52:59.059Z,3.10
2023-03-20T14:55:27.686Z,2.13
2023-03-20T14:57:57.307Z,2.20
2023-03-20T15:00:30.045Z,1.70
2023-03-20T15:03:16.234Z,2.43
2023-03-20T15:05:43.815Z,4.97
2023-03-20T15:08:24.052Z,4.40
2023-03-20T15:10:58.635Z,1.90
2023-03-20T15:13:26.170Z,2.83
2023-03-20T15:15:54.354Z,4.60
2023-03-20T15:18:22.584Z,3.37
2023-03-20T15:20:49.437Z,11.03
2023-03-20T15:23:16.054Z,3.40
2023-03-20T15:25:47.860Z,4.47
2023-03-20T15:28:26.159Z,3.83
2023-03-20T15:30:56.232Z,4.73
2023-03-20T15:33:33.660Z,4.13
2023-03-20T15:36:18.024Z,7.47
2023-03-20T15:38:46.753Z,4.93
2023-03-20T15:41:29.298Z,4.90
2023-03-20T15:44:18.954Z,3.73
2023-03-20T15:47:11.239Z,5.60
2023-03-20T15:49:41.712Z,4.33
2023-03-20T15:52:32.510Z,4.60
2023-03-20T15:55:02.756Z,4.40
2023-03-20T15:57:38.696Z,3.80
2023-03-20T16:00:13.056Z,3.27
2023-03-20T16:02:40.597Z,5.90
2023-03-20T16:05:15.462Z,3.17
2023-03-20T16:07:42.520Z,4.07
2023-03-20T16:10:36.397Z,2.87
2023-03-20T16:13:05.681Z,2.60
2023-03-20T16:15:33.923Z,3.07
2023-03-20T16:18:05.289Z,3.03
2023-03-20T16:20:40.412Z,2.97
2023-03-20T16:23:09.042Z,6.87
2023-03-20T16:25:36.916Z,3.27
2023-03-20T16:28:07.005Z,4.30
2023-03-20T16:30:34.840Z,2.83
2023-03-20T16:33:15.445Z,3.73
2023-03-20T16:35:49.721Z,5.80
2023-03-20T16:38:23.714Z,2.67
2023-03-20T16:40:56.435Z,7.37
2023-03-20T16:43:30.180Z,3.33
2023-03-20T16:46:03.647Z,3.00
2023-03-20T16:48:37.670Z,4.07
2023-03-20T16:51:31.162Z,3.30
2023-03-20T16:54:03.994Z,4.50
2023-03-20T16:56:36.893Z,4.30
2023-03-20T16:59:16.435Z,4.97
2023-03-20T17:01:44.954Z,3.97
2023-03-20T17:04:18.823Z,5.13
2023-03-20T17:07:13.627Z,4.40
2023-03-20T17:09:54.560Z,3.73
2023-03-20T17:12:24.068Z,4.27
2023-03-20T17:14:50.646Z,5.20
2023-03-20T17:17:22.199Z,5.13
2023-03-20T17:19:50.151Z,4.80
2023-03-20T17:22:19.996Z,4.80
2023-03-20T17:24:46.704Z,5.23
2023-03-20T17:27:14.345Z,4.50
2023-03-20T17:29:41.527Z,3.80
2023-03-20T17:32:20.215Z,4.07
2023-03-20T17:34:46.765Z,3.33
2023-03-20T17:37:16.336Z,3.67
2023-03-20T17:39:43.286Z,5.03
2023-03-20T17:42:22.231Z,4.70
2023-03-20T17:44:49.259Z,4.00
2023-03-20T17:47:18.946Z,5.17
2023-03-20T17:49:46.109Z,5.53
2023-03-20T17:52:18.462Z,4.37
2023-03-20T17:54:46.458Z,5.13
2023-03-20T17:57:33.791Z,3.47
2023-03-20T18:00:01.689Z,3.67
2023-03-20T18:02:28.357Z,3.80
2023-03-20T18:04:54.970Z,4.33
2023-03-20T18:07:22.138Z,6.30
2023-03-20T18:09:51.495Z,4.63
2023-03-20T18:12:19.107Z,3.30
2023-03-20T18:14:46.105Z,4.80
2023-03-20T18:17:14.239Z,4.30
2023-03-20T18:19:41.125Z,3.70
2023-03-20T18:22:07.895Z,4.30
2023-03-20T18:24:34.937Z,4.07
2023-03-20T18:27:01.804Z,4.40
2023-03-20T18:29:28.705Z,4.37
2023-03-20T18:31:55.273Z,4.10
2023-03-20T18:34:21.906Z,3.13
2023-03-20T18:36:48.476Z,4.20
2023-03-20T18:39:21.560Z,5.43
2023-03-20T18:41:48.227Z,4.03
2023-03-20T18:44:15.458Z,3.53
2023-03-20T18:46:43.051Z,3.00
2023-03-20T18:49:17.376Z,4.07
2023-03-20T18:51:45.143Z,3.35
2023-03-20T18:54:11.796Z,5.07
2023-03-20T18:56:38.433Z,3.73
2023-03-20T18:59:07.726Z,8.30
2023-03-20T19:01:35.792Z,5.60
2023-03-20T19:04:02.641Z,3.10
2023-03-20T19:06:32.327Z,7.00
2023-03-20T19:08:59.327Z,6.47
2023-03-20T19:11:26.246Z,5.30
2023-03-20T19:13:53.716Z,3.83
2023-03-20T19:16:24.804Z,4.23
2023-03-20T19:18:56.404Z,3.80
2023-03-20T19:21:26.146Z,3.90
2023-03-20T19:23:54.736Z,5.77
2023-03-20T19:26:24.378Z,6.00
2023-03-20T19:28:51.352Z,6.23
2023-03-20T19:31:18.077Z,8.17
2023-03-20T19:33:44.891Z,10.43
2023-03-20T19:36:31.698Z,8.20
2023-03-20T19:39:00.747Z,6.87
2023-03-20T19:41:28.888Z,8.20
2023-03-20T19:43:57.026Z,5.30
2023-03-20T19:46:42.052Z,5.87
2023-03-20T19:49:19.641Z,4.63
2023-03-20T19:51:47.872Z,4.10
2023-03-20T19:54:14.507Z,4.77
2023-03-20T19:56:41.438Z,5.97
2023-03-20T19:59:08.438Z,5.43
2023-03-20T20:01:36.159Z,4.87
2023-03-20T20:04:02.959Z,4.43
2023-03-20T20:06:32.262Z,5.10
2023-03-20T20:09:00.952Z,4.50
2023-03-20T20:11:27.841Z,6.20
2023-03-20T20:14:13.419Z,5.27
2023-03-20T20:16:42.852Z,7.37
2023-03-20T20:19:09.838Z,10.37
2023-03-20T20:22:17.293Z,3.03
2023-03-20T20:24:23.176Z,5.20
2023-03-20T20:27:03.474Z,4.60
2023-03-20T20:29:37.818Z,3.67
2023-03-20T20:32:04.718Z,5.57
2023-03-20T20:38:09.109Z,4.77
2023-03-20T20:40:05.986Z,3.73
2023-03-20T20:42:32.607Z,3.30
2023-03-20T20:44:59.212Z,4.63
2023-03-20T20:47:25.862Z,6.47
2023-03-20T20:49:52.451Z,6.20
2023-03-20T20:52:19.062Z,4.20
2023-03-20T20:54:45.748Z,5.93
2023-03-20T20:57:12.619Z,4.40
2023-03-20T20:59:40.551Z,4.77
2023-03-20T21:02:11.510Z,4.80
2023-03-20T21:04:39.605Z,3.83
2023-03-20T21:07:10.404Z,4.90
2023-03-20T21:09:38.070Z,5.50
2023-03-20T21:12:05.387Z,5.00
2023-03-20T21:14:32.374Z,5.40
2023-03-20T21:17:01.728Z,5.70
2023-03-20T21:19:35.901Z,4.50
2023-03-20T21:22:02.735Z,4.90
2023-03-20T21:24:33.778Z,5.20
2023-03-20T21:27:06.803Z,5.13
2023-03-20T21:29:34.156Z,5.07
2023-03-20T21:32:00.899Z,4.43
2023-03-20T21:34:28.959Z,5.50
2023-03-20T21:36:57.456Z,5.70
2023-03-20T21:39:26.235Z,6.40
2023-03-20T21:41:52.809Z,5.77
2023-03-20T21:44:46.117Z,5.20
2023-03-20T21:53:16.894Z,6.77
2023-03-20T22:01:39.791Z,6.32
2023-03-20T22:07:26.477Z,5.17
2023-03-20T22:24:05.708Z,5.40
2023-03-20T22:35:22.430Z,6.80
2023-03-20T22:43:15.496Z,6.40
2023-03-20T22:45:38.472Z,7.20
2023-03-20T22:48:11.576Z,5.03
2023-03-20T22:50:39.749Z,7.13
2023-03-20T22:53:06.335Z,6.23
2023-03-20T22:55:33.081Z,5.70
2023-03-20T22:58:06.943Z,5.63
2023-03-20T23:00:35.612Z,5.33
2023-03-20T23:03:17.158Z,6.43
2023-03-20T23:05:49.783Z,5.10
2023-03-20T23:08:16.669Z,9.07
2023-03-20T23:10:44.940Z,4.97
2023-03-20T23:13:12.521Z,5.23
2023-03-20T23:15:39.333Z,6.23
2023-03-20T23:18:06.394Z,7.83
2023-03-20T23:20:33.395Z,5.53
2023-03-20T23:23:00.208Z,5.67
2023-03-20T23:25:38.151Z,6.53
2023-03-20T23:28:08.688Z,6.67
2023-03-20T23:30:46.706Z,6.80
2023-03-20T23:33:18.257Z,5.20
2023-03-20T23:35:44.933Z,4.77
2023-03-20T23:38:11.572Z,5.20
2023-03-20T23:40:38.321Z,7.13
2023-03-20T23:43:05.102Z,5.37
2023-03-20T23:45:31.747Z,5.17
2023-03-20T23:47:58.352Z,6.67
2023-03-20T23:50:31.877Z,7.60
2023-03-20T23:53:13.642Z,6.77
2023-03-20T23:55:47.252Z,6.87
2023-03-20T23:58:14.531Z,6.27
